createdAt,value
2022-08-11T00:01:59.132Z,98982.94
2022-08-11T00:05:05.744Z,98979.72
2022-08-11T00:08:10.879Z,98979.66
2022-08-11T00:11:13.815Z,98975.84
2022-08-11T00:14:19.008Z,98972.69
2022-08-11T00:17:28.905Z,98975.06
2022-08-11T00:20:33.246Z,98967.75
2022-08-11T00:23:42.245Z,98972.69
2022-08-11T00:26:49.786Z,98969.94
2022-08-11T00:29:54.966Z,98978.38
2022-08-11T00:32:58.838Z,98972.50
2022-08-11T00:36:02.759Z,98970.25
2022-08-11T00:39:08.299Z,98977.00
2022-08-11T00:42:17.699Z,98979.03
2022-08-11T00:45:25.854Z,98979.53
2022-08-11T00:48:31.055Z,98984.34
2022-08-11T00:52:03.887Z,98972.66
2022-08-11T00:55:55.572Z,98976.72
2022-08-11T00:59:35.076Z,98979.03
2022-08-11T01:02:49.562Z,98978.41
2022-08-11T01:06:01.699Z,98975.66
2022-08-11T01:09:35.783Z,98975.25
2022-08-11T01:12:46.961Z,98985.38
2022-08-11T01:16:12.415Z,98986.28
2022-08-11T01:20:38.515Z,98982.50
2022-08-11T01:23:36.683Z,98981.47
2022-08-11T01:27:19.040Z,98979.06
2022-08-11T01:31:05.817Z,98986.47
2022-08-11T01:34:56.884Z,98986.31
2022-08-11T01:38:28.429Z,98969.91
2022-08-11T01:42:00.929Z,98966.75
2022-08-11T01:45:19.925Z,98975.50
2022-08-11T01:48:33.761Z,98974.06
2022-08-11T01:51:47.650Z,98970.41
2022-08-11T01:54:57.746Z,98968.47
2022-08-11T01:58:09.139Z,98966.19
2022-08-11T02:01:21.831Z,98963.00
2022-08-11T02:04:31.226Z,98971.19
2022-08-11T02:07:37.222Z,98965.66
2022-08-11T02:11:12.808Z,98966.75
2022-08-11T02:14:25.332Z,98975.75
2022-08-11T02:17:41.553Z,98987.59
2022-08-11T02:21:05.955Z,98980.16
2022-08-11T02:24:15.632Z,98969.50
2022-08-11T02:27:23.468Z,98959.88
2022-08-11T02:30:27.205Z,98962.09
2022-08-11T02:33:34.466Z,98961.31
2022-08-11T02:36:44.281Z,98953.47
2022-08-11T02:40:12.002Z,98952.34
2022-08-11T02:43:25.578Z,98950.44
2022-08-11T02:46:28.644Z,98956.78
2022-08-11T02:50:02.642Z,98962.50
2022-08-11T02:53:15.364Z,98956.44
2022-08-11T02:56:23.814Z,98963.28
2022-08-11T02:59:52.367Z,98967.28
2022-08-11T03:03:17.244Z,98956.88
2022-08-11T03:06:31.072Z,98963.81
2022-08-11T03:09:45.530Z,98966.81
2022-08-11T03:13:11.319Z,98968.97
2022-08-11T03:16:43.265Z,98963.59
2022-08-11T03:19:50.647Z,98967.75
2022-08-11T03:23:01.784Z,98969.03
2022-08-11T03:26:08.695Z,98967.25
2022-08-11T03:29:25.023Z,98974.88
2022-08-11T03:32:32.048Z,98972.09
2022-08-11T03:35:37.940Z,98974.19
2022-08-11T03:38:51.463Z,98985.03
2022-08-11T03:42:03.936Z,98984.00
2022-08-11T03:45:19.079Z,98987.66
2022-08-11T03:48:26.751Z,98985.41
2022-08-11T03:51:44.589Z,98988.59
2022-08-11T03:55:02.868Z,98974.72
2022-08-11T03:58:38.153Z,98983.06
2022-08-11T04:02:20.593Z,98997.53
2022-08-11T04:06:07.369Z,98987.19
2022-08-11T04:10:00.324Z,98985.44
2022-08-11T04:13:40.796Z,98984.69
2022-08-11T04:16:45.202Z,98989.41
2022-08-11T04:20:06.950Z,98979.22
2022-08-11T04:24:33.353Z,98985.84
2022-08-11T04:27:37.214Z,98984.34
2022-08-11T04:30:56.580Z,98983.53
2022-08-11T04:34:20.580Z,98995.53
2022-08-11T04:37:53.494Z,98985.09
2022-08-11T04:41:21.773Z,98987.72
2022-08-11T04:45:00.884Z,98991.09
2022-08-11T04:48:42.745Z,98991.09
2022-08-11T04:52:36.010Z,98993.16
2022-08-11T04:56:18.239Z,98992.19
2022-08-11T04:59:59.581Z,98995.13
2022-08-11T05:03:38.067Z,99000.56
2022-08-11T05:07:09.454Z,98997.72
2022-08-11T05:10:21.139Z,99003.88
2022-08-11T05:13:46.913Z,99004.47
2022-08-11T05:17:09.863Z,98995.97
2022-08-11T05:20:31.535Z,99006.38
2022-08-11T05:23:53.311Z,98998.97
2022-08-11T05:27:14.133Z,99003.16
2022-08-11T05:30:36.138Z,99001.44
2022-08-11T05:34:06.891Z,99010.25
2022-08-11T05:37:26.707Z,99007.63
2022-08-11T05:40:51.246Z,99012.53
2022-08-11T05:44:20.330Z,99006.78
2022-08-11T05:47:45.309Z,99006.22
2022-08-11T05:51:11.291Z,99006.53
2022-08-11T05:54:35.233Z,99004.94
2022-08-11T05:57:50.750Z,99011.91
2022-08-11T06:00:54.807Z,99007.81
2022-08-11T06:04:15.860Z,99000.84
2022-08-11T06:07:18.730Z,98991.66
2022-08-11T06:10:30.092Z,99011.00
2022-08-11T06:13:33.856Z,99008.53
2022-08-11T06:16:36.705Z,99008.41
2022-08-11T06:19:41.879Z,98996.09
2022-08-11T06:22:52.375Z,99012.19
2022-08-11T06:25:56.411Z,99002.97
2022-08-11T06:29:01.778Z,99004.69
2022-08-11T06:32:06.652Z,99001.28
2022-08-11T06:35:19.423Z,99009.03
2022-08-11T06:38:38.071Z,99010.31
2022-08-11T06:41:46.992Z,99002.19
2022-08-11T06:45:05.326Z,99008.72
2022-08-11T06:48:11.197Z,99012.00
2022-08-11T06:51:14.305Z,99002.59
2022-08-11T06:54:17.074Z,99005.41
2022-08-11T06:57:38.320Z,99006.75
2022-08-11T07:00:41.848Z,99010.06
2022-08-11T07:03:46.693Z,99006.53
2022-08-11T07:07:25.373Z,98999.09
2022-08-11T07:10:54.581Z,99001.22
2022-08-11T07:14:18.638Z,99009.63
2022-08-11T07:17:23.931Z,99002.09
2022-08-11T07:20:44.249Z,99005.00
2022-08-11T07:24:05.829Z,99000.28
2022-08-11T07:27:34.983Z,98993.56
2022-08-11T07:30:40.825Z,98999.16
2022-08-11T07:34:07.042Z,99002.78
2022-08-11T07:37:12.664Z,98986.84
2022-08-11T07:40:21.928Z,98982.06
2022-08-11T07:43:24.716Z,98990.44
2022-08-11T07:46:45.035Z,98986.84
2022-08-11T07:50:07.956Z,98984.03
2022-08-11T07:53:11.428Z,98985.63
2022-08-11T07:56:17.307Z,98981.59
2022-08-11T08:00:04.086Z,98981.97
2022-08-11T08:03:23.981Z,98985.09
2022-08-11T08:06:45.273Z,98976.22
2022-08-11T08:10:06.100Z,98979.38
2022-08-11T08:13:27.929Z,98972.53
2022-08-11T08:16:49.457Z,98980.06
2022-08-11T08:19:52.265Z,98968.41
2022-08-11T08:22:57.495Z,98985.50
2022-08-11T08:26:01.508Z,98972.56
2022-08-11T08:29:25.106Z,98980.84
2022-08-11T08:32:28.689Z,98976.75
2022-08-11T08:35:32.996Z,98976.31
2022-08-11T08:38:35.925Z,98988.03
2022-08-11T08:41:39.660Z,98988.41
2022-08-11T08:44:46.635Z,98993.63
2022-08-11T08:47:53.832Z,98993.16
2022-08-11T08:51:17.694Z,98987.94
2022-08-11T08:54:28.563Z,98987.69
2022-08-11T08:57:39.228Z,98977.03
2022-08-11T09:00:46.154Z,98973.00
2022-08-11T09:04:05.182Z,98979.84
2022-08-11T09:07:13.390Z,98974.03
2022-08-11T09:10:17.527Z,98976.81
2022-08-11T09:13:20.530Z,98971.94
2022-08-11T09:16:25.367Z,98981.63
2022-08-11T09:19:28.026Z,98981.63
2022-08-11T09:23:19.269Z,98981.00
2022-08-11T09:26:32.374Z,98981.00
2022-08-11T09:29:35.229Z,98978.06
2022-08-11T09:32:40.409Z,98978.63
2022-08-11T09:35:46.668Z,98984.50
2022-08-11T09:39:07.246Z,98967.78
2022-08-11T09:42:11.241Z,98963.22
2022-08-11T09:45:14.106Z,98969.22
2022-08-11T09:48:18.808Z,98966.69
2022-08-11T09:51:22.787Z,98964.50
2022-08-11T09:54:26.538Z,98973.09
2022-08-11T09:57:47.859Z,98962.28
2022-08-11T10:00:52.087Z,98961.59
2022-08-11T10:04:01.746Z,98961.59
2022-08-11T10:07:08.945Z,98958.47
2022-08-11T10:10:12.084Z,98962.78
2022-08-11T10:14:32.252Z,98967.13
2022-08-11T10:16:41.178Z,98956.97
2022-08-11T10:20:03.820Z,98949.59
2022-08-11T10:23:27.157Z,98948.16
2022-08-11T10:26:48.657Z,98945.94
2022-08-11T10:30:09.839Z,98944.97
2022-08-11T10:33:36.946Z,98953.06
2022-08-11T10:36:47.188Z,98944.19
2022-08-11T10:39:52.893Z,98931.47
2022-08-11T10:43:06.822Z,98928.53
2022-08-11T10:46:30.177Z,98932.72
2022-08-11T10:49:33.840Z,98935.09
2022-08-11T10:52:56.841Z,98931.28
2022-08-11T10:56:16.694Z,98921.28
2022-08-11T10:59:19.706Z,98908.88
2022-08-11T11:02:22.777Z,98916.66
2022-08-11T11:05:30.583Z,98916.34
2022-08-11T11:08:57.630Z,98908.69
2022-08-11T11:12:25.799Z,98902.06
2022-08-11T11:15:49.745Z,98902.88
2022-08-11T11:19:00.569Z,98897.72
2022-08-11T11:22:23.617Z,98891.81
2022-08-11T11:25:34.196Z,98889.25
2022-08-11T11:28:52.663Z,98890.66
2022-08-11T11:32:07.213Z,98887.97
2022-08-11T11:35:26.704Z,98874.84
2022-08-11T11:38:29.906Z,98866.13
2022-08-11T11:41:34.131Z,98882.00
2022-08-11T11:44:38.510Z,98874.72
2022-08-11T11:47:42.140Z,98867.44
2022-08-11T11:50:44.920Z,98870.81
2022-08-11T11:53:48.306Z,98864.91
2022-08-11T11:56:53.308Z,98867.22
2022-08-11T12:00:14.368Z,98859.81
2022-08-11T12:03:17.995Z,98862.00
2022-08-11T12:06:22.492Z,98861.59
2022-08-11T12:09:25.755Z,98857.75
2022-08-11T12:12:47.646Z,98859.88
2022-08-11T12:16:31.803Z,98865.81
2022-08-11T12:19:15.128Z,98853.06
2022-08-11T12:22:35.505Z,98858.00
2022-08-11T12:26:23.302Z,98851.00
2022-08-11T12:29:21.548Z,98846.16
2022-08-11T12:32:26.127Z,98839.59
2022-08-11T12:35:28.884Z,98835.78
2022-08-11T12:38:32.309Z,98843.31
2022-08-11T12:41:53.843Z,98838.34
2022-08-11T12:45:22.335Z,98827.06
2022-08-11T12:49:00.392Z,98824.13
2022-08-11T12:52:14.819Z,98814.41
2022-08-11T12:55:42.773Z,98813.88
2022-08-11T12:59:23.936Z,98814.44
2022-08-11T13:02:49.780Z,98812.31
2022-08-11T13:05:55.045Z,98800.97
2022-08-11T13:09:01.484Z,98792.22
2022-08-11T13:12:22.319Z,98785.72
2022-08-11T13:15:26.215Z,98785.59
2022-08-11T13:18:31.205Z,98785.53
2022-08-11T13:21:34.022Z,98792.94
2022-08-11T13:24:37.209Z,98774.59
2022-08-11T13:27:40.048Z,98773.25
2022-08-11T13:31:01.845Z,98781.72
2022-08-11T13:34:08.962Z,98770.34
2022-08-11T13:37:14.356Z,98764.19
2022-08-11T13:40:27.775Z,98767.75
2022-08-11T13:43:35.998Z,98763.88
2022-08-11T13:46:38.962Z,98762.47
2022-08-11T13:49:45.182Z,98755.88
2022-08-11T13:52:53.120Z,98753.63
2022-08-11T13:55:56.846Z,98733.22
2022-08-11T13:59:00.833Z,98738.06
2022-08-11T14:02:21.965Z,98740.34
2022-08-11T14:05:34.256Z,98732.38
2022-08-11T14:08:41.786Z,98730.75
2022-08-11T14:12:21.845Z,98727.88
2022-08-11T14:15:30.023Z,98712.56
2022-08-11T14:18:34.052Z,98707.47
2022-08-11T14:22:03.693Z,98698.31
2022-08-11T14:25:10.568Z,98698.03
2022-08-11T14:28:34.080Z,98692.44
2022-08-11T14:31:39.284Z,98702.88
2022-08-11T14:34:44.739Z,98707.22
2022-08-11T14:37:49.250Z,98699.31
2022-08-11T14:41:10.537Z,98696.72
2022-08-11T14:44:31.027Z,98693.56
2022-08-11T14:47:35.284Z,98694.38
2022-08-11T14:50:38.191Z,98690.16
2022-08-11T14:53:58.205Z,98694.94
2022-08-11T14:57:03.354Z,98692.09
2022-08-11T15:00:08.014Z,98682.91
2022-08-11T15:03:13.182Z,98668.50
2022-08-11T15:06:16.303Z,98668.16
2022-08-11T15:09:20.440Z,98669.69
2022-08-11T15:12:31.154Z,98666.63
2022-08-11T15:15:55.631Z,98663.47
2022-08-11T15:18:59.071Z,98669.28
2022-08-11T15:22:22.860Z,98660.25
2022-08-11T15:25:30.765Z,98654.91
2022-08-11T15:28:55.685Z,98658.25
2022-08-11T15:32:16.024Z,98651.31
2022-08-11T15:35:39.258Z,98647.28
2022-08-11T15:38:45.962Z,98644.75
2022-08-11T15:42:12.734Z,98641.81
2022-08-11T15:45:34.409Z,98641.84
2022-08-11T15:48:42.601Z,98628.84
2022-08-11T15:51:48.372Z,98641.38
2022-08-11T15:54:51.348Z,98635.88
2022-08-11T15:58:14.210Z,98629.09
2022-08-11T16:01:34.881Z,98627.41
2022-08-11T16:04:38.592Z,98632.13
2022-08-11T16:07:42.841Z,98623.41
2022-08-11T16:10:47.734Z,98619.69
2022-08-11T16:14:13.160Z,98616.19
2022-08-11T16:17:17.097Z,98616.81
2022-08-11T16:20:25.173Z,98615.84
2022-08-11T16:23:29.189Z,98614.31
2022-08-11T16:27:10.438Z,98610.75
2022-08-11T16:29:57.384Z,98599.78
2022-08-11T16:33:48.331Z,98608.03
2022-08-11T16:36:45.179Z,98607.34
2022-08-11T16:39:51.147Z,98600.31
2022-08-11T16:43:12.266Z,98598.03
2022-08-11T16:46:36.597Z,98604.13
2022-08-11T16:49:42.983Z,98595.94
2022-08-11T16:52:52.300Z,98599.81
2022-08-11T16:55:56.133Z,98592.44
2022-08-11T16:59:17.586Z,98592.78
2022-08-11T17:02:37.048Z,98601.75
2022-08-11T17:06:01.313Z,98600.88
2022-08-11T17:09:22.244Z,98596.69
2022-08-11T17:12:44.750Z,98586.16
2022-08-11T17:16:10.128Z,98588.53
2022-08-11T17:19:15.590Z,98588.56
2022-08-11T17:22:37.340Z,98588.88
2022-08-11T17:25:59.447Z,98583.31
2022-08-11T17:29:04.336Z,98583.97
2022-08-11T17:32:26.624Z,98584.69
2022-08-11T17:35:38.653Z,98578.63
2022-08-11T17:38:42.835Z,98575.91
2022-08-11T17:42:09.162Z,98571.25
2022-08-11T17:45:30.348Z,98576.50
2022-08-11T17:48:38.038Z,98573.81
2022-08-11T17:52:10.525Z,98573.75
2022-08-11T17:55:52.451Z,98571.25
2022-08-11T17:59:13.207Z,98584.75
2022-08-11T18:02:34.738Z,98585.91
2022-08-11T18:05:39.232Z,98586.84
2022-08-11T18:09:02.918Z,98586.75
2022-08-11T18:12:25.482Z,98589.88
2022-08-11T18:15:49.920Z,98583.75
2022-08-11T18:19:11.539Z,98590.41
2022-08-11T18:22:34.766Z,98596.34
2022-08-11T18:25:59.559Z,98595.88
2022-08-11T18:29:19.757Z,98600.63
2022-08-11T18:32:49.559Z,98602.31
2022-08-11T18:36:12.955Z,98598.81
2022-08-11T18:39:34.144Z,98615.34
2022-08-11T18:42:56.831Z,98614.88
2022-08-11T18:46:20.460Z,98616.56
2022-08-11T18:50:03.973Z,98619.69
2022-08-11T18:53:26.305Z,98616.09
2022-08-11T18:56:48.864Z,98631.13
2022-08-11T19:00:12.482Z,98629.31
2022-08-11T19:03:43.347Z,98633.75
2022-08-11T19:07:15.461Z,98633.09
2022-08-11T19:10:38.562Z,98649.78
2022-08-11T19:14:00.118Z,98653.63
2022-08-11T19:17:44.312Z,98660.59
2022-08-11T19:21:04.344Z,98667.81
2022-08-11T19:24:26.014Z,98665.44
2022-08-11T19:27:47.352Z,98666.63
2022-08-11T19:31:07.447Z,98668.31
2022-08-11T19:34:30.121Z,98671.53
2022-08-11T19:37:51.047Z,98669.22
2022-08-11T19:41:11.859Z,98666.50
2022-08-11T19:44:33.603Z,98668.91
2022-08-11T19:48:08.141Z,98669.75
2022-08-11T19:51:36.529Z,98669.00
2022-08-11T19:54:57.755Z,98668.66
2022-08-11T19:58:18.311Z,98671.97
2022-08-11T20:01:38.670Z,98676.03
2022-08-11T20:05:19.318Z,98672.09
2022-08-11T20:08:42.832Z,98670.94
2022-08-11T20:12:05.867Z,98679.72
2022-08-11T20:15:27.642Z,98675.75
2022-08-11T20:18:48.706Z,98680.53
2022-08-11T20:22:09.824Z,98678.16
2022-08-11T20:25:33.450Z,98674.19
2022-08-11T20:28:54.370Z,98678.53
2022-08-11T20:32:14.604Z,98670.19
2022-08-11T20:35:35.604Z,98682.91
2022-08-11T20:38:57.179Z,98690.06
2022-08-11T20:42:20.205Z,98698.38
2022-08-11T20:45:55.274Z,98694.03
2022-08-11T20:49:18.128Z,98695.59
2022-08-11T20:52:40.280Z,98697.19
2022-08-11T20:56:00.887Z,98704.31
2022-08-11T21:03:11.217Z,98698.69
2022-08-11T21:06:33.484Z,98704.31
2022-08-11T21:09:58.313Z,98710.63
2022-08-11T21:13:27.065Z,98709.81
2022-08-11T21:16:53.541Z,98715.69
2022-08-11T21:20:20.717Z,98712.47
2022-08-11T21:23:42.286Z,98715.28
2022-08-11T21:27:04.407Z,98719.25
2022-08-11T21:30:26.893Z,98717.66
2022-08-11T21:33:50.577Z,98720.06
2022-08-11T21:37:10.942Z,98725.22
2022-08-11T21:40:33.287Z,98719.75
2022-08-11T21:43:54.114Z,98724.84
2022-08-11T21:47:18.443Z,98722.38
2022-08-11T21:50:42.697Z,98730.22
2022-08-11T21:54:03.512Z,98729.47
2022-08-11T21:57:25.205Z,98727.81
2022-08-11T22:00:45.535Z,98726.66
2022-08-11T22:04:06.230Z,98728.28
2022-08-11T22:07:28.458Z,98720.78
2022-08-11T22:10:50.933Z,98713.69
2022-08-11T22:14:11.271Z,98709.72
2022-08-11T22:17:31.781Z,98715.28
2022-08-11T22:20:52.383Z,98710.13
2022-08-11T22:24:14.766Z,98699.41
2022-08-11T22:27:38.659Z,98694.66
2022-08-11T22:30:59.062Z,98701.78
2022-08-11T22:34:20.643Z,98705.75
2022-08-11T22:37:40.973Z,98696.59
2022-08-11T22:41:02.939Z,98693.03
2022-08-11T22:44:23.303Z,98688.69
2022-08-11T22:47:45.149Z,98703.78
2022-08-11T22:51:05.524Z,98713.75
2022-08-11T22:54:27.358Z,98703.44
2022-08-11T22:58:00.144Z,98704.31
2022-08-11T23:01:21.894Z,98700.22
2022-08-11T23:04:42.515Z,98712.47
2022-08-11T23:08:03.965Z,98707.19
2022-08-11T23:11:24.811Z,98708.88
2022-08-11T23:14:46.529Z,98708.81
2022-08-11T23:18:06.890Z,98697.91
2022-08-11T23:21:27.309Z,98705.38
2022-08-11T23:24:47.710Z,98702.06
2022-08-11T23:28:08.207Z,98712.97
2022-08-11T23:31:30.119Z,98722.41
2022-08-11T23:35:38.591Z,98709.31
2022-08-11T23:38:54.120Z,98716.25
2022-08-11T23:42:14.527Z,98722.91
2022-08-11T23:45:35.505Z,98718.03
2022-08-11T23:48:57.762Z,98713.28
2022-08-11T23:52:18.656Z,98715.91
2022-08-11T23:55:39.374Z,98716.25
2022-08-11T23:58:59.646Z,98724.81
